AUA983 LOWW-ENTC
Flight info
| Callsign | AUA983 |
|---|---|
| Flight time | 3h 32m |
| Altitude | 38000 |
| Route | LANUX DCT VLM DCT ODLIV DCT RASAN DCT NAVDI DCT POKEN DCT GILEN DCT BARVI |
| Aircraft | A20N/M-SDE2E3FGHIRWXY/LB1 |
Departure
| Time | 2026-04-24 12:59 |
|---|---|
| Airport | Vienna International Airport (LOWW) |
Arrival
| Time | 2026-04-24 16:31 |
|---|---|
| Airport | Tromsø Airport (ENTC) |
| Time | Latitude | Longitude | Altitude | Speed | Heading |
|---|---|---|---|---|---|
| 2026-04-24 12:47 | 48.11386 | 16.57247 | 622 ft | 0 kts | 206° |
| 2026-04-24 12:55 | 48.11377 | 16.57240 | 609 ft | 3 kts | 206° |
| 2026-04-24 12:55 | 48.11346 | 16.57226 | 616 ft | 6 kts | 184° |
| 2026-04-24 12:55 | 48.11305 | 16.57265 | 613 ft | 8 kts | 132° |
| 2026-04-24 12:55 | 48.11244 | 16.57285 | 618 ft | 11 kts | 184° |
| 2026-04-24 12:56 | 48.11183 | 16.57354 | 620 ft | 13 kts | 118° |
| 2026-04-24 12:56 | 48.11139 | 16.57487 | 618 ft | 16 kts | 115° |
| 2026-04-24 12:56 | 48.11093 | 16.57625 | 618 ft | 14 kts | 131° |
| 2026-04-24 12:56 | 48.11022 | 16.57631 | 618 ft | 0 kts | 206° |
| 2026-04-24 12:57 | 48.10995 | 16.57610 | 609 ft | 12 kts | 206° |
| 2026-04-24 12:57 | 48.10938 | 16.57487 | 613 ft | 17 kts | 267° |
| 2026-04-24 12:58 | 48.11004 | 16.57263 | 620 ft | 52 kts | 296° |
| 2026-04-24 12:58 | 48.11280 | 16.56413 | 615 ft | 125 kts | 296° |
| 2026-04-24 12:58 | 48.11741 | 16.54991 | 680 ft | 173 kts | 296° |
| 2026-04-24 12:58 | 48.12286 | 16.53198 | 1030 ft | 205 kts | 288° |
| 2026-04-24 12:59 | 48.12446 | 16.50944 | 1812 ft | 224 kts | 266° |
| 2026-04-24 12:59 | 48.11991 | 16.48743 | 2982 ft | 219 kts | 244° |
| 2026-04-24 12:59 | 48.11416 | 16.46652 | 3962 ft | 222 kts | 265° |
| 2026-04-24 12:59 | 48.11488 | 16.44335 | 4663 ft | 233 kts | 282° |
| 2026-04-24 13:00 | 48.11855 | 16.41867 | 5299 ft | 250 kts | 285° |
| 2026-04-24 13:00 | 48.12260 | 16.39321 | 6263 ft | 253 kts | 284° |
| 2026-04-24 13:00 | 48.12621 | 16.36740 | 7231 ft | 255 kts | 283° |
| 2026-04-24 13:00 | 48.12946 | 16.34089 | 8043 ft | 263 kts | 282° |
| 2026-04-24 13:01 | 48.13247 | 16.31368 | 8948 ft | 267 kts | 282° |
| 2026-04-24 13:01 | 48.13540 | 16.28585 | 9850 ft | 273 kts | 282° |
| 2026-04-24 13:01 | 48.13837 | 16.25729 | 10483 ft | 287 kts | 282° |
| 2026-04-24 13:01 | 48.14370 | 16.22752 | 10751 ft | 307 kts | 297° |
| 2026-04-24 13:02 | 48.15646 | 16.20107 | 11174 ft | 320 kts | 319° |
| 2026-04-24 13:02 | 48.17519 | 16.18292 | 11904 ft | 324 kts | 334° |
| 2026-04-24 13:02 | 48.19561 | 16.16788 | 12681 ft | 330 kts | 334° |
| 2026-04-24 13:02 | 48.21638 | 16.15264 | 13458 ft | 335 kts | 334° |
| 2026-04-24 13:03 | 48.23746 | 16.13709 | 14186 ft | 340 kts | 334° |
| 2026-04-24 13:03 | 48.25878 | 16.12130 | 14921 ft | 343 kts | 334° |
| 2026-04-24 13:03 | 48.28036 | 16.10530 | 15613 ft | 347 kts | 334° |
| 2026-04-24 13:03 | 48.30214 | 16.08912 | 16307 ft | 351 kts | 334° |
| 2026-04-24 13:04 | 48.32415 | 16.07276 | 17003 ft | 355 kts | 334° |
| 2026-04-24 13:04 | 48.34646 | 16.05616 | 17677 ft | 359 kts | 334° |
| 2026-04-24 13:04 | 48.36898 | 16.03939 | 18346 ft | 363 kts | 334° |
| 2026-04-24 13:04 | 48.39174 | 16.02243 | 18962 ft | 366 kts | 334° |
| 2026-04-24 13:05 | 48.41468 | 16.00532 | 19558 ft | 370 kts | 334° |
| 2026-04-24 13:05 | 48.43758 | 15.98822 | 20153 ft | 373 kts | 334° |
| 2026-04-24 13:05 | 48.46123 | 15.97053 | 20759 ft | 376 kts | 334° |
| 2026-04-24 13:05 | 48.48475 | 15.95294 | 21321 ft | 380 kts | 333° |
| 2026-04-24 13:06 | 48.50854 | 15.93510 | 21891 ft | 384 kts | 333° |
| 2026-04-24 13:06 | 48.53255 | 15.91708 | 22451 ft | 387 kts | 333° |
| 2026-04-24 13:06 | 48.55676 | 15.89890 | 23021 ft | 391 kts | 333° |
| 2026-04-24 13:06 | 48.58090 | 15.87970 | 23575 ft | 394 kts | 330° |
| 2026-04-24 13:07 | 48.60480 | 15.85916 | 24056 ft | 397 kts | 330° |
| 2026-04-24 13:07 | 48.62894 | 15.83855 | 24555 ft | 399 kts | 330° |
| 2026-04-24 13:07 | 48.65311 | 15.81792 | 25033 ft | 401 kts | 330° |
| 2026-04-24 13:07 | 48.67721 | 15.79732 | 25480 ft | 404 kts | 331° |
| 2026-04-24 13:08 | 48.70173 | 15.77634 | 25944 ft | 406 kts | 331° |
| 2026-04-24 13:08 | 48.72638 | 15.75521 | 26390 ft | 408 kts | 331° |
| 2026-04-24 13:08 | 48.75117 | 15.73393 | 26831 ft | 411 kts | 331° |
| 2026-04-24 13:09 | 48.80121 | 15.69088 | 27675 ft | 415 kts | 331° |
| 2026-04-24 13:09 | 48.82642 | 15.66915 | 28069 ft | 418 kts | 331° |
| 2026-04-24 13:09 | 48.84323 | 15.65465 | 28316 ft | 420 kts | 331° |
| 2026-04-24 13:09 | 48.86870 | 15.63266 | 28699 ft | 422 kts | 332° |
| 2026-04-24 13:10 | 48.89461 | 15.61156 | 29080 ft | 423 kts | 336° |
| 2026-04-24 13:10 | 48.92166 | 15.59370 | 29456 ft | 425 kts | 338° |
| 2026-04-24 13:10 | 48.94889 | 15.57576 | 29836 ft | 426 kts | 338° |
| 2026-04-24 13:10 | 48.97614 | 15.55767 | 30195 ft | 428 kts | 338° |
| 2026-04-24 13:11 | 49.00350 | 15.53948 | 30508 ft | 430 kts | 338° |
| 2026-04-24 13:11 | 49.03092 | 15.52123 | 30858 ft | 430 kts | 338° |
| 2026-04-24 13:11 | 49.05834 | 15.50297 | 31195 ft | 431 kts | 338° |
| 2026-04-24 13:11 | 49.08588 | 15.48461 | 31602 ft | 430 kts | 338° |
| 2026-04-24 13:12 | 49.11325 | 15.46635 | 32046 ft | 428 kts | 338° |
| 2026-04-24 13:12 | 49.14049 | 15.44817 | 32490 ft | 426 kts | 338° |
| 2026-04-24 13:12 | 49.16758 | 15.43006 | 32925 ft | 424 kts | 338° |
| 2026-04-24 13:12 | 49.19454 | 15.41201 | 33345 ft | 422 kts | 338° |
| 2026-04-24 13:13 | 49.22138 | 15.39403 | 33745 ft | 420 kts | 338° |
| 2026-04-24 13:13 | 49.24813 | 15.37609 | 34115 ft | 419 kts | 338° |
| 2026-04-24 13:13 | 49.27478 | 15.35819 | 34438 ft | 418 kts | 338° |
| 2026-04-24 13:13 | 49.30134 | 15.34034 | 34744 ft | 416 kts | 338° |
| 2026-04-24 13:14 | 49.32783 | 15.32250 | 35031 ft | 415 kts | 338° |
| 2026-04-24 13:14 | 49.35428 | 15.30468 | 35305 ft | 415 kts | 338° |
| 2026-04-24 13:14 | 49.38066 | 15.28688 | 35584 ft | 414 kts | 338° |
| 2026-04-24 13:14 | 49.40704 | 15.26906 | 35872 ft | 413 kts | 338° |
| 2026-04-24 13:15 | 49.43329 | 15.25130 | 36102 ft | 412 kts | 337° |
| 2026-04-24 13:15 | 49.45951 | 15.23355 | 36360 ft | 411 kts | 337° |
| 2026-04-24 13:15 | 49.48567 | 15.21581 | 36604 ft | 411 kts | 337° |
| 2026-04-24 13:15 | 49.51186 | 15.19804 | 36821 ft | 410 kts | 337° |
| 2026-04-24 13:16 | 49.53795 | 15.18031 | 37051 ft | 410 kts | 337° |
| 2026-04-24 13:16 | 49.56400 | 15.16259 | 37275 ft | 409 kts | 337° |
| 2026-04-24 13:16 | 49.59000 | 15.14488 | 37487 ft | 408 kts | 337° |
| 2026-04-24 13:16 | 49.61595 | 15.12718 | 37712 ft | 407 kts | 337° |
| 2026-04-24 13:17 | 49.64186 | 15.10949 | 37909 ft | 407 kts | 337° |
| 2026-04-24 13:17 | 49.66775 | 15.09182 | 38080 ft | 407 kts | 338° |
| 2026-04-24 13:17 | 49.72122 | 15.06437 | 38079 ft | 404 kts | 347° |
| 2026-04-24 13:18 | 49.77616 | 15.04900 | 38077 ft | 404 kts | 350° |
| 2026-04-24 13:18 | 49.83199 | 15.03446 | 38073 ft | 404 kts | 350° |
| 2026-04-24 13:19 | 49.88704 | 15.02023 | 38080 ft | 404 kts | 350° |
| 2026-04-24 13:19 | 49.94259 | 15.00598 | 38082 ft | 404 kts | 350° |
| 2026-04-24 13:20 | 49.99794 | 14.99177 | 38086 ft | 404 kts | 349° |
| 2026-04-24 13:20 | 50.05348 | 14.97748 | 38094 ft | 403 kts | 349° |
| 2026-04-24 13:21 | 50.10856 | 14.96328 | 38093 ft | 403 kts | 349° |
| 2026-04-24 13:21 | 50.16392 | 14.94897 | 38098 ft | 403 kts | 349° |
| 2026-04-24 13:22 | 50.21926 | 14.93462 | 38096 ft | 403 kts | 349° |
| 2026-04-24 13:22 | 50.27456 | 14.92026 | 38091 ft | 403 kts | 349° |
| 2026-04-24 13:23 | 50.32991 | 14.90585 | 38087 ft | 403 kts | 349° |
| 2026-04-24 13:23 | 50.38520 | 14.89142 | 38091 ft | 403 kts | 349° |
| 2026-04-24 13:24 | 50.44060 | 14.87788 | 38097 ft | 404 kts | 353° |
| 2026-04-24 13:24 | 50.49697 | 14.87818 | 38101 ft | 407 kts | 3° |
| 2026-04-24 13:25 | 50.55237 | 14.89542 | 38108 ft | 411 kts | 12° |
| 2026-04-24 13:25 | 50.60758 | 14.91900 | 38111 ft | 411 kts | 11° |
| 2026-04-24 13:26 | 50.66286 | 14.94252 | 38115 ft | 412 kts | 11° |
| 2026-04-24 13:26 | 50.71820 | 14.96631 | 38120 ft | 412 kts | 11° |
| 2026-04-24 13:27 | 50.77361 | 14.99026 | 38122 ft | 413 kts | 11° |
| 2026-04-24 13:27 | 50.82918 | 15.01433 | 38132 ft | 414 kts | 11° |
| 2026-04-24 13:28 | 50.88487 | 15.03852 | 38133 ft | 414 kts | 11° |
| 2026-04-24 13:28 | 50.94058 | 15.06277 | 38143 ft | 415 kts | 11° |
| 2026-04-24 13:29 | 50.99621 | 15.08391 | 38142 ft | 412 kts | 5° |
| 2026-04-24 13:29 | 51.05291 | 15.09121 | 38135 ft | 406 kts | 356° |
| 2026-04-24 13:30 | 51.10935 | 15.08805 | 38133 ft | 405 kts | 355° |
| 2026-04-24 13:30 | 51.16562 | 15.08481 | 38133 ft | 405 kts | 354° |
| 2026-04-24 13:31 | 51.22198 | 15.08130 | 38136 ft | 405 kts | 354° |
| 2026-04-24 13:31 | 51.27825 | 15.07766 | 38127 ft | 405 kts | 354° |
| 2026-04-24 13:32 | 51.33450 | 15.07399 | 38123 ft | 404 kts | 354° |
| 2026-04-24 13:32 | 51.39071 | 15.07031 | 38122 ft | 404 kts | 354° |
| 2026-04-24 13:33 | 51.44657 | 15.06666 | 38122 ft | 404 kts | 354° |
| 2026-04-24 13:33 | 51.50309 | 15.06294 | 38117 ft | 404 kts | 354° |
| 2026-04-24 13:34 | 51.55882 | 15.05927 | 38113 ft | 403 kts | 354° |
| 2026-04-24 13:34 | 51.61497 | 15.05556 | 38110 ft | 403 kts | 354° |
| 2026-04-24 13:35 | 51.67106 | 15.05186 | 38111 ft | 403 kts | 354° |
| 2026-04-24 13:35 | 51.72716 | 15.04814 | 38110 ft | 403 kts | 354° |
| 2026-04-24 13:36 | 51.78328 | 15.04441 | 38107 ft | 404 kts | 354° |
| 2026-04-24 13:36 | 51.83939 | 15.04067 | 38103 ft | 403 kts | 353° |
| 2026-04-24 13:37 | 51.89556 | 15.03692 | 38102 ft | 403 kts | 353° |
| 2026-04-24 13:37 | 51.95162 | 15.03317 | 38106 ft | 403 kts | 353° |
| 2026-04-24 13:38 | 52.00768 | 15.02941 | 38078 ft | 403 kts | 353° |
| 2026-04-24 13:38 | 52.06377 | 15.02564 | 38092 ft | 403 kts | 353° |
| 2026-04-24 13:39 | 52.11977 | 15.02186 | 38091 ft | 403 kts | 353° |
| 2026-04-24 13:39 | 52.17588 | 15.01806 | 38087 ft | 403 kts | 353° |
| 2026-04-24 13:40 | 52.23155 | 15.01429 | 38091 ft | 403 kts | 353° |
| 2026-04-24 13:40 | 52.28759 | 15.01048 | 38084 ft | 403 kts | 353° |
| 2026-04-24 13:41 | 52.34365 | 15.00666 | 38086 ft | 403 kts | 353° |
| 2026-04-24 13:41 | 52.39967 | 15.00284 | 38078 ft | 403 kts | 353° |
| 2026-04-24 13:42 | 52.45568 | 14.99900 | 38077 ft | 403 kts | 353° |
| 2026-04-24 13:42 | 52.51178 | 14.99515 | 38079 ft | 403 kts | 353° |
| 2026-04-24 13:43 | 52.56705 | 14.98657 | 38081 ft | 401 kts | 349° |
| 2026-04-24 13:43 | 52.62255 | 14.97678 | 38075 ft | 401 kts | 349° |
| 2026-04-24 13:44 | 52.67803 | 14.96700 | 38075 ft | 401 kts | 349° |
| 2026-04-24 13:44 | 52.73356 | 14.95709 | 38072 ft | 401 kts | 349° |
| 2026-04-24 13:45 | 52.78912 | 14.94713 | 38071 ft | 401 kts | 349° |
| 2026-04-24 13:45 | 52.84461 | 14.93714 | 38062 ft | 401 kts | 349° |
| 2026-04-24 13:46 | 52.90017 | 14.92713 | 38062 ft | 401 kts | 349° |
| 2026-04-24 13:46 | 52.95534 | 14.91715 | 38060 ft | 401 kts | 348° |
| 2026-04-24 13:47 | 53.01088 | 14.90709 | 38058 ft | 401 kts | 348° |
| 2026-04-24 13:47 | 53.06635 | 14.89701 | 38061 ft | 401 kts | 348° |
| 2026-04-24 13:48 | 53.12179 | 14.88690 | 38055 ft | 401 kts | 348° |
| 2026-04-24 13:48 | 53.17728 | 14.87677 | 38053 ft | 400 kts | 348° |
| 2026-04-24 13:49 | 53.23268 | 14.86662 | 38050 ft | 400 kts | 348° |
| 2026-04-24 13:49 | 53.28804 | 14.85646 | 38049 ft | 400 kts | 348° |
| 2026-04-24 13:50 | 53.34336 | 14.84627 | 38045 ft | 400 kts | 348° |
| 2026-04-24 13:50 | 53.39873 | 14.83605 | 38042 ft | 400 kts | 348° |
| 2026-04-24 13:51 | 53.44464 | 14.82756 | 38044 ft | 400 kts | 348° |
| 2026-04-24 13:51 | 53.50000 | 14.81729 | 38042 ft | 400 kts | 348° |
| 2026-04-24 13:52 | 53.55536 | 14.80699 | 38042 ft | 400 kts | 348° |
| 2026-04-24 13:52 | 53.61075 | 14.79667 | 38045 ft | 400 kts | 348° |
| 2026-04-24 13:53 | 53.66617 | 14.78630 | 38042 ft | 400 kts | 348° |
| 2026-04-24 13:53 | 53.72125 | 14.77598 | 38049 ft | 400 kts | 348° |
| 2026-04-24 13:54 | 53.77672 | 14.76555 | 38045 ft | 401 kts | 348° |
| 2026-04-24 13:54 | 53.83219 | 14.75510 | 38047 ft | 401 kts | 348° |
| 2026-04-24 13:55 | 53.88777 | 14.74460 | 38047 ft | 401 kts | 348° |
| 2026-04-24 13:55 | 53.94331 | 14.73408 | 38048 ft | 402 kts | 347° |
| 2026-04-24 13:56 | 53.99892 | 14.72351 | 38042 ft | 402 kts | 347° |
| 2026-04-24 13:56 | 54.05449 | 14.71293 | 38040 ft | 402 kts | 347° |
| 2026-04-24 13:57 | 54.11006 | 14.70231 | 38040 ft | 402 kts | 347° |
| 2026-04-24 13:57 | 54.16531 | 14.69173 | 38034 ft | 402 kts | 347° |
| 2026-04-24 13:58 | 54.22094 | 14.68105 | 38026 ft | 402 kts | 347° |
| 2026-04-24 13:58 | 54.27655 | 14.67034 | 38036 ft | 401 kts | 347° |
| 2026-04-24 13:59 | 54.33202 | 14.65963 | 38026 ft | 402 kts | 347° |
| 2026-04-24 13:59 | 54.38763 | 14.64886 | 38024 ft | 402 kts | 347° |
| 2026-04-24 14:00 | 54.44319 | 14.63807 | 38015 ft | 402 kts | 347° |
| 2026-04-24 14:00 | 54.49884 | 14.62724 | 38020 ft | 402 kts | 347° |
| 2026-04-24 14:01 | 54.55445 | 14.61638 | 38010 ft | 402 kts | 347° |
| 2026-04-24 14:01 | 54.61014 | 14.60548 | 38015 ft | 402 kts | 347° |
| 2026-04-24 14:02 | 54.66579 | 14.59455 | 38012 ft | 403 kts | 347° |
| 2026-04-24 14:02 | 54.72153 | 14.58358 | 38008 ft | 403 kts | 348° |
| 2026-04-24 14:03 | 54.77737 | 14.57256 | 38010 ft | 404 kts | 348° |
| 2026-04-24 14:03 | 54.83335 | 14.56691 | 38007 ft | 410 kts | 355° |
| 2026-04-24 14:04 | 54.89052 | 14.57366 | 38009 ft | 412 kts | 358° |
| 2026-04-24 14:04 | 54.94775 | 14.58054 | 38016 ft | 412 kts | 358° |
| 2026-04-24 14:05 | 55.00506 | 14.58762 | 38016 ft | 413 kts | 358° |
| 2026-04-24 14:05 | 55.06243 | 14.59488 | 38023 ft | 414 kts | 358° |
| 2026-04-24 14:06 | 55.11986 | 14.60219 | 38016 ft | 414 kts | 358° |
| 2026-04-24 14:06 | 55.17735 | 14.60952 | 38027 ft | 414 kts | 358° |
| 2026-04-24 14:07 | 55.23504 | 14.61690 | 38013 ft | 415 kts | 358° |
| 2026-04-24 14:07 | 55.29271 | 14.62430 | 38011 ft | 415 kts | 358° |
| 2026-04-24 14:08 | 55.35005 | 14.63168 | 37995 ft | 416 kts | 358° |
| 2026-04-24 14:08 | 55.40774 | 14.63913 | 37989 ft | 416 kts | 358° |
| 2026-04-24 14:09 | 55.46548 | 14.64660 | 37980 ft | 416 kts | 358° |
| 2026-04-24 14:09 | 55.52331 | 14.65411 | 37984 ft | 416 kts | 358° |
| 2026-04-24 14:10 | 55.58118 | 14.66165 | 37984 ft | 417 kts | 358° |
| 2026-04-24 14:10 | 55.63900 | 14.66921 | 37982 ft | 417 kts | 358° |
| 2026-04-24 14:11 | 55.69652 | 14.67675 | 37982 ft | 417 kts | 358° |
| 2026-04-24 14:12 | 55.78333 | 14.68818 | 37979 ft | 417 kts | 358° |
| 2026-04-24 14:12 | 55.84115 | 14.69582 | 37977 ft | 416 kts | 358° |
| 2026-04-24 14:13 | 55.89894 | 14.70348 | 37972 ft | 416 kts | 358° |
| 2026-04-24 14:13 | 55.95678 | 14.71117 | 37968 ft | 416 kts | 358° |
| 2026-04-24 14:14 | 56.01449 | 14.71886 | 37964 ft | 416 kts | 358° |
| 2026-04-24 14:14 | 56.10130 | 14.73047 | 37958 ft | 416 kts | 358° |
| 2026-04-24 14:15 | 56.15918 | 14.73825 | 37946 ft | 417 kts | 358° |
| 2026-04-24 14:15 | 56.21704 | 14.74605 | 37947 ft | 417 kts | 358° |
| 2026-04-24 14:16 | 56.27500 | 14.75388 | 37937 ft | 418 kts | 358° |
| 2026-04-24 14:17 | 56.36185 | 14.76565 | 37935 ft | 420 kts | 358° |
| 2026-04-24 14:17 | 56.44955 | 14.77759 | 37933 ft | 422 kts | 358° |
| 2026-04-24 14:18 | 56.50825 | 14.78562 | 37931 ft | 423 kts | 359° |
| 2026-04-24 14:18 | 56.56681 | 14.79366 | 37934 ft | 425 kts | 359° |
| 2026-04-24 14:19 | 56.62598 | 14.80180 | 37940 ft | 427 kts | 359° |
| 2026-04-24 14:19 | 56.68541 | 14.81000 | 37948 ft | 429 kts | 359° |
| 2026-04-24 14:20 | 56.74517 | 14.81828 | 37961 ft | 431 kts | 359° |
| 2026-04-24 14:20 | 56.80517 | 14.82662 | 37973 ft | 433 kts | 359° |
| 2026-04-24 14:21 | 56.86538 | 14.83502 | 37983 ft | 434 kts | 359° |
| 2026-04-24 14:21 | 56.92549 | 14.84345 | 37969 ft | 432 kts | 359° |
| 2026-04-24 14:22 | 56.98554 | 14.85186 | 37970 ft | 433 kts | 359° |
| 2026-04-24 14:23 | 57.07580 | 14.86458 | 37968 ft | 434 kts | 359° |
| 2026-04-24 14:23 | 57.13607 | 14.87310 | 37953 ft | 434 kts | 359° |
| 2026-04-24 14:24 | 57.19631 | 14.88165 | 37951 ft | 434 kts | 360° |
| 2026-04-24 14:24 | 57.25624 | 14.89018 | 37950 ft | 434 kts | 360° |
| 2026-04-24 14:25 | 57.30678 | 14.89739 | 37955 ft | 435 kts | 360° |
| 2026-04-24 14:25 | 57.37729 | 14.90749 | 37956 ft | 435 kts | 360° |
| 2026-04-24 14:26 | 57.43723 | 14.91611 | 37959 ft | 435 kts | 360° |
| 2026-04-24 14:26 | 57.49756 | 14.92481 | 37958 ft | 435 kts | 360° |
| 2026-04-24 14:27 | 57.55826 | 14.93360 | 37957 ft | 434 kts | 360° |
| 2026-04-24 14:27 | 57.61814 | 14.94230 | 37960 ft | 434 kts | 360° |
| 2026-04-24 14:28 | 57.67839 | 14.95108 | 37960 ft | 434 kts | 0° |
| 2026-04-24 14:28 | 57.73862 | 14.95989 | 37965 ft | 434 kts | 0° |
| 2026-04-24 14:29 | 57.79888 | 14.96873 | 37959 ft | 434 kts | 0° |
| 2026-04-24 14:29 | 57.85911 | 14.97759 | 37963 ft | 433 kts | 0° |
| 2026-04-24 14:30 | 57.90909 | 14.98497 | 37961 ft | 433 kts | 0° |
| 2026-04-24 14:30 | 57.97888 | 14.99531 | 37958 ft | 433 kts | 0° |
| 2026-04-24 14:31 | 58.03897 | 15.00424 | 37955 ft | 433 kts | 0° |
| 2026-04-24 14:31 | 58.09898 | 15.01319 | 37954 ft | 432 kts | 0° |
| 2026-04-24 14:32 | 58.15898 | 15.02217 | 37955 ft | 433 kts | 0° |
| 2026-04-24 14:32 | 58.20929 | 15.02971 | 37951 ft | 433 kts | 0° |
| 2026-04-24 14:33 | 58.26900 | 15.03871 | 37944 ft | 433 kts | 0° |
| 2026-04-24 14:33 | 58.32907 | 15.04778 | 37939 ft | 433 kts | 0° |
| 2026-04-24 14:34 | 58.38919 | 15.05690 | 37947 ft | 433 kts | 0° |
| 2026-04-24 14:34 | 58.44935 | 15.06605 | 37942 ft | 434 kts | 0° |
| 2026-04-24 14:35 | 58.50961 | 15.07526 | 37942 ft | 434 kts | 0° |
| 2026-04-24 14:35 | 58.56954 | 15.08444 | 37939 ft | 435 kts | 0° |
| 2026-04-24 14:36 | 58.63003 | 15.09373 | 37940 ft | 435 kts | 1° |
| 2026-04-24 14:36 | 58.69047 | 15.10306 | 37939 ft | 436 kts | 1° |
| 2026-04-24 14:37 | 58.75107 | 15.11244 | 37935 ft | 437 kts | 1° |
| 2026-04-24 14:37 | 58.81168 | 15.12186 | 37935 ft | 437 kts | 1° |
| 2026-04-24 14:38 | 58.87245 | 15.13133 | 37934 ft | 438 kts | 1° |
| 2026-04-24 14:38 | 58.93291 | 15.14079 | 37930 ft | 438 kts | 1° |
| 2026-04-24 14:39 | 58.99383 | 15.15035 | 37926 ft | 439 kts | 1° |
| 2026-04-24 14:39 | 59.05473 | 15.15995 | 37925 ft | 439 kts | 1° |
| 2026-04-24 14:40 | 59.11566 | 15.16958 | 37924 ft | 439 kts | 1° |
| 2026-04-24 14:40 | 59.17660 | 15.17925 | 37926 ft | 439 kts | 1° |
| 2026-04-24 14:41 | 59.23754 | 15.18895 | 37926 ft | 439 kts | 1° |
| 2026-04-24 14:41 | 59.29846 | 15.19869 | 37913 ft | 437 kts | 1° |
| 2026-04-24 14:42 | 59.35899 | 15.20841 | 37911 ft | 436 kts | 1° |
| 2026-04-24 14:42 | 59.41959 | 15.21815 | 37912 ft | 436 kts | 1° |
| 2026-04-24 14:43 | 59.47974 | 15.22787 | 37909 ft | 436 kts | 1° |
| 2026-04-24 14:43 | 59.54025 | 15.23769 | 37906 ft | 436 kts | 1° |
| 2026-04-24 14:44 | 59.60076 | 15.24753 | 37902 ft | 436 kts | 1° |
| 2026-04-24 14:44 | 59.66124 | 15.25741 | 37906 ft | 436 kts | 1° |
| 2026-04-24 14:45 | 59.72171 | 15.26732 | 37902 ft | 436 kts | 1° |
| 2026-04-24 14:45 | 59.78222 | 15.27727 | 37899 ft | 436 kts | 1° |
| 2026-04-24 14:46 | 59.84270 | 15.28726 | 37898 ft | 436 kts | 1° |
| 2026-04-24 14:46 | 59.90319 | 15.29728 | 37901 ft | 436 kts | 1° |
| 2026-04-24 14:47 | 59.96368 | 15.30733 | 37902 ft | 436 kts | 1° |
| 2026-04-24 14:47 | 60.02376 | 15.31736 | 37898 ft | 435 kts | 2° |
| 2026-04-24 14:48 | 60.08414 | 15.32748 | 37896 ft | 435 kts | 2° |
| 2026-04-24 14:48 | 60.14454 | 15.33764 | 37895 ft | 435 kts | 2° |
| 2026-04-24 14:49 | 60.20486 | 15.34781 | 37891 ft | 435 kts | 2° |
| 2026-04-24 14:49 | 60.26520 | 15.35804 | 37889 ft | 434 kts | 2° |
| 2026-04-24 14:50 | 60.32544 | 15.36828 | 37875 ft | 434 kts | 2° |
| 2026-04-24 14:50 | 60.38570 | 15.37856 | 37890 ft | 434 kts | 2° |
| 2026-04-24 14:51 | 60.44554 | 15.38881 | 37876 ft | 434 kts | 2° |
| 2026-04-24 14:51 | 60.50570 | 15.39915 | 37887 ft | 434 kts | 2° |
| 2026-04-24 14:52 | 60.56626 | 15.40960 | 37882 ft | 434 kts | 2° |
| 2026-04-24 14:52 | 60.62603 | 15.41995 | 37881 ft | 434 kts | 2° |
| 2026-04-24 14:53 | 60.68622 | 15.43041 | 37888 ft | 434 kts | 2° |
| 2026-04-24 14:53 | 60.74651 | 15.44093 | 37881 ft | 434 kts | 2° |
| 2026-04-24 14:54 | 60.80676 | 15.45149 | 37882 ft | 435 kts | 2° |
| 2026-04-24 14:54 | 60.86713 | 15.46210 | 37882 ft | 435 kts | 2° |
| 2026-04-24 14:55 | 60.91737 | 15.47097 | 37891 ft | 435 kts | 2° |
| 2026-04-24 14:55 | 60.98794 | 15.48347 | 37893 ft | 436 kts | 2° |
| 2026-04-24 14:56 | 61.04834 | 15.49421 | 37892 ft | 436 kts | 2° |
| 2026-04-24 14:56 | 61.10872 | 15.50500 | 37896 ft | 435 kts | 2° |
| 2026-04-24 14:57 | 61.16876 | 15.51576 | 37897 ft | 435 kts | 2° |
| 2026-04-24 14:57 | 61.22910 | 15.52663 | 37898 ft | 435 kts | 2° |
| 2026-04-24 14:58 | 61.28939 | 15.53752 | 37899 ft | 435 kts | 2° |
| 2026-04-24 14:58 | 61.34971 | 15.54847 | 37893 ft | 434 kts | 2° |
| 2026-04-24 14:59 | 61.40989 | 15.55942 | 37894 ft | 434 kts | 2° |
| 2026-04-24 14:59 | 61.47000 | 15.57041 | 37893 ft | 433 kts | 2° |
| 2026-04-24 15:00 | 61.53003 | 15.58142 | 37889 ft | 433 kts | 2° |
| 2026-04-24 15:00 | 61.59006 | 15.59248 | 37886 ft | 432 kts | 2° |
| 2026-04-24 15:01 | 61.65001 | 15.60356 | 37882 ft | 432 kts | 2° |
| 2026-04-24 15:01 | 61.70976 | 15.61466 | 37880 ft | 431 kts | 2° |
| 2026-04-24 15:02 | 61.76963 | 15.62582 | 37877 ft | 431 kts | 2° |
| 2026-04-24 15:02 | 61.82934 | 15.63698 | 37881 ft | 430 kts | 2° |
| 2026-04-24 15:03 | 61.87887 | 15.64628 | 37880 ft | 430 kts | 2° |
| 2026-04-24 15:03 | 61.94861 | 15.65943 | 37871 ft | 430 kts | 2° |
| 2026-04-24 15:04 | 62.00821 | 15.67071 | 37875 ft | 430 kts | 1° |
| 2026-04-24 15:04 | 62.06778 | 15.68203 | 37868 ft | 430 kts | 1° |
| 2026-04-24 15:05 | 62.12738 | 15.69339 | 37866 ft | 429 kts | 1° |
| 2026-04-24 15:05 | 62.18691 | 15.70479 | 37867 ft | 430 kts | 1° |
| 2026-04-24 15:06 | 62.24608 | 15.71617 | 37868 ft | 430 kts | 1° |
| 2026-04-24 15:06 | 62.30575 | 15.72768 | 37868 ft | 430 kts | 1° |
| 2026-04-24 15:07 | 62.36535 | 15.73924 | 37869 ft | 430 kts | 1° |
| 2026-04-24 15:07 | 62.42503 | 15.75085 | 37868 ft | 430 kts | 1° |
| 2026-04-24 15:08 | 62.48465 | 15.76249 | 37864 ft | 430 kts | 1° |
| 2026-04-24 15:08 | 62.54428 | 15.77418 | 37863 ft | 430 kts | 1° |
| 2026-04-24 15:09 | 62.60394 | 15.78593 | 37859 ft | 430 kts | 1° |
| 2026-04-24 15:09 | 62.66325 | 15.79766 | 37849 ft | 430 kts | 1° |
| 2026-04-24 15:10 | 62.72290 | 15.80950 | 37849 ft | 430 kts | 1° |
| 2026-04-24 15:10 | 62.78258 | 15.82139 | 37847 ft | 431 kts | 1° |
| 2026-04-24 15:11 | 62.84233 | 15.83335 | 37854 ft | 431 kts | 1° |
| 2026-04-24 15:11 | 62.90216 | 15.84537 | 37852 ft | 431 kts | 1° |
| 2026-04-24 15:12 | 62.96182 | 15.85741 | 37856 ft | 430 kts | 1° |
| 2026-04-24 15:12 | 63.05126 | 15.87554 | 37838 ft | 429 kts | 1° |
| 2026-04-24 15:13 | 63.10058 | 15.88561 | 37835 ft | 428 kts | 1° |
| 2026-04-24 15:13 | 63.16008 | 15.89776 | 37829 ft | 429 kts | 1° |
| 2026-04-24 15:14 | 63.21958 | 15.90997 | 37825 ft | 430 kts | 1° |
| 2026-04-24 15:14 | 63.27920 | 15.92226 | 37821 ft | 431 kts | 1° |
| 2026-04-24 15:15 | 63.33898 | 15.93464 | 37816 ft | 431 kts | 1° |
| 2026-04-24 15:15 | 63.39875 | 15.94708 | 37808 ft | 431 kts | 1° |
| 2026-04-24 15:16 | 63.45857 | 15.95956 | 37800 ft | 432 kts | 1° |
| 2026-04-24 15:16 | 63.51857 | 15.97214 | 37796 ft | 433 kts | 1° |
| 2026-04-24 15:17 | 63.57856 | 15.98478 | 37787 ft | 433 kts | 1° |
| 2026-04-24 15:17 | 63.63864 | 15.99749 | 37791 ft | 434 kts | 1° |
| 2026-04-24 15:18 | 63.69848 | 16.01019 | 37789 ft | 435 kts | 1° |
| 2026-04-24 15:18 | 63.75876 | 16.02304 | 37773 ft | 436 kts | 1° |
| 2026-04-24 15:19 | 63.81924 | 16.03598 | 37786 ft | 436 kts | 1° |
| 2026-04-24 15:19 | 63.87975 | 16.04899 | 37773 ft | 438 kts | 1° |
| 2026-04-24 15:20 | 63.94047 | 16.06210 | 37777 ft | 439 kts | 1° |
| 2026-04-24 15:20 | 64.00139 | 16.07531 | 37774 ft | 440 kts | 1° |
| 2026-04-24 15:21 | 64.06254 | 16.08863 | 37778 ft | 441 kts | 1° |
| 2026-04-24 15:21 | 64.12368 | 16.10202 | 37778 ft | 442 kts | 1° |
| 2026-04-24 15:22 | 64.18458 | 16.11542 | 37783 ft | 442 kts | 1° |
| 2026-04-24 15:23 | 64.27628 | 16.13572 | 37763 ft | 440 kts | 1° |
| 2026-04-24 15:23 | 64.36767 | 16.15605 | 37761 ft | 439 kts | 1° |
| 2026-04-24 15:25 | 64.50941 | 16.18784 | 37741 ft | 439 kts | 1° |
| 2026-04-24 15:26 | 64.67164 | 16.22469 | 37735 ft | 439 kts | 1° |
| 2026-04-24 15:27 | 64.85348 | 16.26651 | 37717 ft | 438 kts | 0° |
| 2026-04-24 15:29 | 65.03539 | 16.30893 | 37704 ft | 437 kts | 0° |
| 2026-04-24 15:31 | 65.24741 | 16.35909 | 37702 ft | 437 kts | 360° |
| 2026-04-24 15:33 | 65.48998 | 16.41747 | 37707 ft | 439 kts | 360° |
| 2026-04-24 15:34 | 65.64147 | 16.45448 | 37717 ft | 439 kts | 360° |
| 2026-04-24 15:35 | 65.79363 | 16.49211 | 37720 ft | 439 kts | 360° |
| 2026-04-24 15:36 | 65.85454 | 16.50730 | 37718 ft | 439 kts | 360° |
| 2026-04-24 15:36 | 65.94581 | 16.53019 | 37726 ft | 439 kts | 360° |
| 2026-04-24 15:37 | 66.00657 | 16.54551 | 37720 ft | 439 kts | 360° |
| 2026-04-24 15:37 | 66.06742 | 16.56094 | 37717 ft | 439 kts | 360° |
| 2026-04-24 15:38 | 66.12822 | 16.57642 | 37713 ft | 439 kts | 360° |
| 2026-04-24 15:38 | 66.18905 | 16.59200 | 37712 ft | 440 kts | 360° |
| 2026-04-24 15:39 | 66.24992 | 16.60766 | 37718 ft | 440 kts | 360° |
| 2026-04-24 15:39 | 66.31085 | 16.62339 | 37717 ft | 440 kts | 360° |
| 2026-04-24 15:40 | 66.37186 | 16.63924 | 37721 ft | 441 kts | 360° |
| 2026-04-24 15:40 | 66.43300 | 16.65520 | 37724 ft | 441 kts | 360° |
| 2026-04-24 15:41 | 66.49414 | 16.67124 | 37719 ft | 442 kts | 360° |
| 2026-04-24 15:41 | 66.55540 | 16.68739 | 37723 ft | 442 kts | 0° |
| 2026-04-24 15:42 | 66.61630 | 16.70352 | 37727 ft | 443 kts | 0° |
| 2026-04-24 15:42 | 66.67760 | 16.71982 | 37729 ft | 443 kts | 0° |
| 2026-04-24 15:43 | 66.73905 | 16.73625 | 37521 ft | 443 kts | 0° |
| 2026-04-24 15:43 | 66.76966 | 16.74451 | 37257 ft | 439 kts | 360° |
| 2026-04-24 15:43 | 66.79980 | 16.75268 | 37015 ft | 434 kts | 360° |
| 2026-04-24 15:44 | 66.82964 | 16.76078 | 36764 ft | 429 kts | 359° |
| 2026-04-24 15:44 | 66.85931 | 16.76882 | 36515 ft | 426 kts | 359° |
| 2026-04-24 15:44 | 66.88873 | 16.77679 | 36272 ft | 424 kts | 359° |
| 2026-04-24 15:44 | 66.91794 | 16.78473 | 36034 ft | 421 kts | 359° |
| 2026-04-24 15:45 | 66.94693 | 16.79262 | 35794 ft | 417 kts | 359° |
| 2026-04-24 15:45 | 66.97567 | 16.80048 | 35558 ft | 413 kts | 359° |
| 2026-04-24 15:45 | 67.00417 | 16.80829 | 35326 ft | 411 kts | 358° |
| 2026-04-24 15:45 | 67.03247 | 16.81607 | 35097 ft | 407 kts | 358° |
| 2026-04-24 15:46 | 67.06063 | 16.82382 | 34861 ft | 405 kts | 358° |
| 2026-04-24 15:46 | 67.08820 | 16.83143 | 34640 ft | 401 kts | 358° |
| 2026-04-24 15:46 | 67.11587 | 16.83908 | 34419 ft | 399 kts | 358° |
| 2026-04-24 15:46 | 67.14335 | 16.84670 | 34192 ft | 396 kts | 358° |
| 2026-04-24 15:47 | 67.17062 | 16.85429 | 33972 ft | 393 kts | 357° |
| 2026-04-24 15:47 | 67.19770 | 16.86184 | 33755 ft | 390 kts | 357° |
| 2026-04-24 15:47 | 67.22460 | 16.86935 | 33489 ft | 387 kts | 357° |
| 2026-04-24 15:47 | 67.25135 | 16.87685 | 33228 ft | 386 kts | 356° |
| 2026-04-24 15:48 | 67.27801 | 16.88435 | 32969 ft | 385 kts | 356° |
| 2026-04-24 15:48 | 67.30460 | 16.89185 | 32714 ft | 384 kts | 356° |
| 2026-04-24 15:48 | 67.33109 | 16.89933 | 32449 ft | 382 kts | 355° |
| 2026-04-24 15:48 | 67.35744 | 16.90681 | 32202 ft | 380 kts | 355° |
| 2026-04-24 15:49 | 67.38369 | 16.91425 | 31954 ft | 379 kts | 355° |
| 2026-04-24 15:49 | 67.40980 | 16.92167 | 31703 ft | 376 kts | 354° |
| 2026-04-24 15:49 | 67.43579 | 16.92906 | 31457 ft | 375 kts | 354° |
| 2026-04-24 15:49 | 67.46170 | 16.93644 | 31210 ft | 374 kts | 354° |
| 2026-04-24 15:50 | 67.48747 | 16.94381 | 30967 ft | 372 kts | 353° |
| 2026-04-24 15:50 | 67.51311 | 16.95117 | 30729 ft | 370 kts | 353° |
| 2026-04-24 15:50 | 67.53863 | 16.95849 | 30496 ft | 368 kts | 352° |
| 2026-04-24 15:50 | 67.56404 | 16.96579 | 30258 ft | 366 kts | 352° |
| 2026-04-24 15:51 | 67.58930 | 16.97308 | 30024 ft | 364 kts | 351° |
| 2026-04-24 15:51 | 67.61445 | 16.98034 | 29786 ft | 362 kts | 351° |
| 2026-04-24 15:51 | 67.63948 | 16.98751 | 29515 ft | 362 kts | 351° |
| 2026-04-24 15:51 | 67.66443 | 16.99465 | 29226 ft | 359 kts | 351° |
| 2026-04-24 15:52 | 67.68086 | 16.99940 | 29041 ft | 357 kts | 351° |
| 2026-04-24 15:52 | 67.71384 | 17.00893 | 28674 ft | 355 kts | 351° |
| 2026-04-24 15:52 | 67.73835 | 17.01597 | 28402 ft | 354 kts | 352° |
| 2026-04-24 15:52 | 67.76288 | 17.02302 | 28129 ft | 353 kts | 352° |
| 2026-04-24 15:53 | 67.78716 | 17.03006 | 27855 ft | 351 kts | 352° |
| 2026-04-24 15:53 | 67.81138 | 17.03707 | 27600 ft | 350 kts | 352° |
| 2026-04-24 15:53 | 67.82741 | 17.04172 | 27429 ft | 349 kts | 352° |
| 2026-04-24 15:53 | 67.85936 | 17.05105 | 27074 ft | 347 kts | 353° |
| 2026-04-24 15:54 | 67.87555 | 17.05581 | 26907 ft | 346 kts | 353° |
| 2026-04-24 15:54 | 67.89943 | 17.06282 | 26652 ft | 345 kts | 353° |
| 2026-04-24 15:54 | 67.92326 | 17.06980 | 26402 ft | 344 kts | 353° |
| 2026-04-24 15:54 | 67.94700 | 17.07677 | 26149 ft | 343 kts | 353° |
| 2026-04-24 15:55 | 67.97066 | 17.08373 | 25896 ft | 341 kts | 354° |
| 2026-04-24 15:55 | 67.99420 | 17.09070 | 25651 ft | 340 kts | 354° |
| 2026-04-24 15:55 | 68.01770 | 17.09768 | 25405 ft | 339 kts | 354° |
| 2026-04-24 15:55 | 68.04093 | 17.10158 | 25182 ft | 331 kts | 348° |
| 2026-04-24 15:56 | 68.06387 | 17.10170 | 24930 ft | 328 kts | 348° |
| 2026-04-24 15:56 | 68.08666 | 17.10153 | 24687 ft | 327 kts | 348° |
| 2026-04-24 15:56 | 68.10945 | 17.10132 | 24451 ft | 327 kts | 348° |
| 2026-04-24 15:56 | 68.13220 | 17.10120 | 24211 ft | 326 kts | 349° |
| 2026-04-24 15:57 | 68.15485 | 17.10121 | 23974 ft | 324 kts | 349° |
| 2026-04-24 15:57 | 68.17715 | 17.10124 | 23748 ft | 324 kts | 349° |
| 2026-04-24 15:57 | 68.19966 | 17.10127 | 23518 ft | 323 kts | 349° |
| 2026-04-24 15:57 | 68.22212 | 17.10131 | 23281 ft | 323 kts | 349° |
| 2026-04-24 15:58 | 68.24454 | 17.10134 | 22994 ft | 322 kts | 349° |
| 2026-04-24 15:58 | 68.26686 | 17.10142 | 22721 ft | 320 kts | 350° |
| 2026-04-24 15:58 | 68.28910 | 17.10150 | 22434 ft | 318 kts | 350° |
| 2026-04-24 15:58 | 68.31110 | 17.10164 | 22159 ft | 316 kts | 350° |
| 2026-04-24 15:59 | 68.33311 | 17.10167 | 21883 ft | 315 kts | 350° |
| 2026-04-24 15:59 | 68.35498 | 17.10167 | 21605 ft | 313 kts | 351° |
| 2026-04-24 15:59 | 68.37674 | 17.10166 | 21343 ft | 312 kts | 351° |
| 2026-04-24 15:59 | 68.39841 | 17.10167 | 21077 ft | 311 kts | 351° |
| 2026-04-24 16:00 | 68.42008 | 17.10171 | 20813 ft | 310 kts | 351° |
| 2026-04-24 16:00 | 68.44159 | 17.10176 | 20546 ft | 308 kts | 351° |
| 2026-04-24 16:00 | 68.46298 | 17.10181 | 20281 ft | 306 kts | 352° |
| 2026-04-24 16:00 | 68.48427 | 17.10185 | 20025 ft | 306 kts | 352° |
| 2026-04-24 16:01 | 68.50552 | 17.10187 | 19774 ft | 305 kts | 352° |
| 2026-04-24 16:01 | 68.52673 | 17.10192 | 19510 ft | 303 kts | 352° |
| 2026-04-24 16:01 | 68.54778 | 17.10198 | 19259 ft | 302 kts | 353° |
| 2026-04-24 16:01 | 68.56876 | 17.10203 | 19002 ft | 301 kts | 353° |
| 2026-04-24 16:02 | 68.58966 | 17.10208 | 18756 ft | 300 kts | 353° |
| 2026-04-24 16:02 | 68.61043 | 17.10211 | 18501 ft | 297 kts | 353° |
| 2026-04-24 16:02 | 68.63110 | 17.10213 | 18249 ft | 297 kts | 353° |
| 2026-04-24 16:02 | 68.65171 | 17.10217 | 18008 ft | 296 kts | 354° |
| 2026-04-24 16:03 | 68.67223 | 17.10223 | 17710 ft | 294 kts | 354° |
| 2026-04-24 16:03 | 68.69266 | 17.10227 | 17430 ft | 293 kts | 354° |
| 2026-04-24 16:03 | 68.71299 | 17.10232 | 17146 ft | 291 kts | 354° |
| 2026-04-24 16:03 | 68.73322 | 17.10238 | 16870 ft | 290 kts | 354° |
| 2026-04-24 16:04 | 68.75341 | 17.10242 | 16593 ft | 289 kts | 355° |
| 2026-04-24 16:04 | 68.77351 | 17.10248 | 16315 ft | 288 kts | 355° |
| 2026-04-24 16:04 | 68.79328 | 17.10254 | 16041 ft | 286 kts | 355° |
| 2026-04-24 16:04 | 68.81318 | 17.10258 | 15776 ft | 286 kts | 355° |
| 2026-04-24 16:05 | 68.85301 | 17.10268 | 15236 ft | 283 kts | 355° |
| 2026-04-24 16:05 | 68.87242 | 17.10274 | 14976 ft | 281 kts | 355° |
| 2026-04-24 16:06 | 68.91153 | 17.10283 | 14462 ft | 280 kts | 356° |
| 2026-04-24 16:06 | 68.93097 | 17.10289 | 14200 ft | 279 kts | 356° |
| 2026-04-24 16:06 | 68.96958 | 17.10304 | 13693 ft | 277 kts | 356° |
| 2026-04-24 16:07 | 68.98880 | 17.10310 | 13432 ft | 276 kts | 356° |
| 2026-04-24 16:07 | 69.00795 | 17.10515 | 13136 ft | 277 kts | 5° |
| 2026-04-24 16:07 | 69.04213 | 17.15596 | 12570 ft | 287 kts | 36° |
| 2026-04-24 16:08 | 69.05730 | 17.19191 | 12297 ft | 285 kts | 36° |
| 2026-04-24 16:08 | 69.08745 | 17.26294 | 11749 ft | 282 kts | 36° |
| 2026-04-24 16:09 | 69.11735 | 17.33329 | 11213 ft | 279 kts | 36° |
| 2026-04-24 16:09 | 69.13217 | 17.36826 | 10934 ft | 278 kts | 36° |
| 2026-04-24 16:09 | 69.14694 | 17.40318 | 10672 ft | 277 kts | 36° |
| 2026-04-24 16:09 | 69.16162 | 17.43791 | 10418 ft | 275 kts | 36° |
| 2026-04-24 16:10 | 69.20519 | 17.54143 | 9660 ft | 272 kts | 37° |
| 2026-04-24 16:11 | 69.23399 | 17.61020 | 9374 ft | 270 kts | 37° |
| 2026-04-24 16:11 | 69.24832 | 17.64455 | 9225 ft | 270 kts | 37° |
| 2026-04-24 16:11 | 69.26247 | 17.67850 | 9080 ft | 270 kts | 37° |
| 2026-04-24 16:12 | 69.29093 | 17.74695 | 8807 ft | 268 kts | 37° |
| 2026-04-24 16:12 | 69.30508 | 17.78107 | 8661 ft | 268 kts | 37° |
| 2026-04-24 16:12 | 69.33332 | 17.84937 | 8380 ft | 266 kts | 37° |
| 2026-04-24 16:13 | 69.34738 | 17.88346 | 8267 ft | 265 kts | 37° |
| 2026-04-24 16:13 | 69.37434 | 17.94913 | 8015 ft | 246 kts | 37° |
| 2026-04-24 16:14 | 69.40210 | 18.00382 | 7691 ft | 243 kts | 22° |
| 2026-04-24 16:14 | 69.41722 | 18.02449 | 7546 ft | 240 kts | 22° |
| 2026-04-24 16:14 | 69.44725 | 18.06641 | 7277 ft | 240 kts | 22° |
| 2026-04-24 16:15 | 69.45735 | 18.08062 | 7183 ft | 239 kts | 22° |
| 2026-04-24 16:15 | 69.49198 | 18.12945 | 6879 ft | 238 kts | 22° |
| 2026-04-24 16:16 | 69.52167 | 18.17141 | 6621 ft | 237 kts | 22° |
| 2026-04-24 16:16 | 69.53643 | 18.19233 | 6490 ft | 236 kts | 22° |
| 2026-04-24 16:17 | 69.58049 | 18.25492 | 6103 ft | 235 kts | 23° |
| 2026-04-24 16:17 | 69.60963 | 18.29653 | 5828 ft | 234 kts | 23° |
| 2026-04-24 16:18 | 69.63867 | 18.33805 | 5555 ft | 233 kts | 23° |
| 2026-04-24 16:18 | 69.66743 | 18.37936 | 5283 ft | 231 kts | 23° |
| 2026-04-24 16:18 | 69.68184 | 18.40009 | 5157 ft | 232 kts | 22° |
| 2026-04-24 16:19 | 69.71060 | 18.44158 | 5005 ft | 230 kts | 23° |
| 2026-04-24 16:19 | 69.72484 | 18.46220 | 5009 ft | 230 kts | 23° |
| 2026-04-24 16:20 | 69.75353 | 18.50387 | 5005 ft | 231 kts | 23° |
| 2026-04-24 16:20 | 69.78214 | 18.54530 | 5005 ft | 230 kts | 23° |
| 2026-04-24 16:20 | 69.79644 | 18.56612 | 5012 ft | 232 kts | 23° |
| 2026-04-24 16:21 | 69.82487 | 18.60758 | 5007 ft | 220 kts | 23° |
| 2026-04-24 16:21 | 69.83806 | 18.62702 | 5000 ft | 206 kts | 22° |
| 2026-04-24 16:21 | 69.85084 | 18.64576 | 5001 ft | 208 kts | 22° |
| 2026-04-24 16:22 | 69.86370 | 18.66458 | 5003 ft | 206 kts | 22° |
| 2026-04-24 16:22 | 69.88928 | 18.70206 | 4997 ft | 205 kts | 22° |
| 2026-04-24 16:22 | 69.90207 | 18.72091 | 5000 ft | 206 kts | 22° |
| 2026-04-24 16:23 | 69.91486 | 18.73980 | 5005 ft | 206 kts | 22° |
| 2026-04-24 16:23 | 69.92762 | 18.75870 | 5007 ft | 206 kts | 22° |
| 2026-04-24 16:23 | 69.94041 | 18.77760 | 4998 ft | 206 kts | 22° |
| 2026-04-24 16:24 | 69.95843 | 18.84085 | 4999 ft | 224 kts | 79° |
| 2026-04-24 16:24 | 69.95693 | 18.88672 | 4997 ft | 230 kts | 98° |
| 2026-04-24 16:24 | 69.95311 | 18.93206 | 4997 ft | 230 kts | 101° |
| 2026-04-24 16:24 | 69.94898 | 18.97723 | 4998 ft | 231 kts | 101° |
| 2026-04-24 16:25 | 69.94488 | 19.02186 | 4990 ft | 232 kts | 107° |
| 2026-04-24 16:25 | 69.93528 | 19.05873 | 5024 ft | 234 kts | 148° |
| 2026-04-24 16:25 | 69.91978 | 19.07184 | 4969 ft | 236 kts | 181° |
| 2026-04-24 16:26 | 69.88845 | 19.05743 | 4857 ft | 217 kts | 198° |
| 2026-04-24 16:26 | 69.87421 | 19.04748 | 4581 ft | 205 kts | 197° |
| 2026-04-24 16:26 | 69.84991 | 19.03111 | 4254 ft | 153 kts | 198° |
| 2026-04-24 16:27 | 69.83977 | 19.02413 | 4116 ft | 151 kts | 199° |
| 2026-04-24 16:27 | 69.82978 | 19.01737 | 3868 ft | 147 kts | 198° |
| 2026-04-24 16:27 | 69.81985 | 19.01063 | 3622 ft | 147 kts | 198° |
| 2026-04-24 16:27 | 69.80993 | 19.00392 | 3365 ft | 146 kts | 198° |
| 2026-04-24 16:28 | 69.80006 | 18.99726 | 3093 ft | 145 kts | 198° |
| 2026-04-24 16:28 | 69.79029 | 18.99067 | 2826 ft | 144 kts | 198° |
| 2026-04-24 16:28 | 69.77095 | 18.97763 | 2274 ft | 143 kts | 198° |
| 2026-04-24 16:29 | 69.76124 | 18.97112 | 2008 ft | 142 kts | 198° |
| 2026-04-24 16:29 | 69.75157 | 18.96462 | 1734 ft | 143 kts | 199° |
| 2026-04-24 16:29 | 69.73237 | 18.95175 | 1188 ft | 139 kts | 198° |
| 2026-04-24 16:30 | 69.71367 | 18.93921 | 685 ft | 135 kts | 197° |
| 2026-04-24 16:30 | 69.70435 | 18.93295 | 430 ft | 137 kts | 197° |
| 2026-04-24 16:30 | 69.69520 | 18.92687 | 198 ft | 133 kts | 198° |
| 2026-04-24 16:31 | 69.68627 | 18.92078 | 24 ft | 126 kts | 194° |
| 2026-04-24 16:31 | 69.68153 | 18.91776 | 31 ft | 9 kts | 194° |
| 2026-04-24 16:31 | 69.68069 | 18.91595 | 33 ft | 17 kts | 257° |
| 2026-04-24 16:31 | 69.68068 | 18.91519 | 33 ft | 3 kts | 271° |
| 2026-04-24 16:32 | 69.68068 | 18.91448 | 34 ft | 8 kts | 271° |
| 2026-04-24 16:32 | 69.68036 | 18.91179 | 34 ft | 13 kts | 268° |
| 2026-04-24 16:32 | 69.68042 | 18.91092 | 34 ft | 5 kts | 281° |
| 2026-04-24 16:32 | 69.68048 | 18.91012 | 34 ft | 1 kts | 283° |